메인 페이지
METAR-TAF:

METAR-TAF

공항 :

야쿠츠크 공항

야쿠츠크, 러시아

위도: 62-01N, 경도: 129-43E, 고도: 103m

현재 날씨관측

예보는 37분 전, 10:00시(UTC)에 발표되었습니다.
서북서2kt
온도 -29°C
습도 83%
기압 1018 hPa
시정 10km 이상
1500m 미만 상공 구름 및 적란운 없음

METAR: UEEE 161000Z 30001MPS CAVOK M29/M31 Q1018 R23L/420155 NOSIG RMK QFE755

시각: 19:37 (10:37 UTC)

예보

예보는 2 시간 37분 전, 08:00시(UTC)에 발표되었습니다.
예보 대상 시간: 16일 09시부터 17일 15시까지 (UTC)
여러 방향의 바람 2kt
시정: 3200m
박무
일시적
16일 09시부터 16일 11시까지 (UTC)
시정: 0700m
고도 400ft 상공
안개
일시적
16일 11시부터 17일 03시까지 (UTC)
시정: 0300m
고도 200ft 상공
안개

TAF: UEEE 160800Z 1609/1715 VRB01MPS 3200 BR NSC TEMPO 1609/1611 0700 FG VV004 TEMPO 1611/1703 0300 FG VV002

4,000개 이상의 공항 관측 자료 및 예보 (METAR 및 TAF 보고).

지도상에서 검색 가능한 기상관측소가 노란 점과 빨간 점으로 표시되어 있습니다.

기상관측소 명을 보려면 표시 위로 마우스를 이동하세요.

날씨 관측과 예보를 보려면 클릭하세요.

지도 변경 : 확대하려면 엑스 표시가 있는 녹색 버튼, 축소하려면 빼기 표시가 있는 녹색 버튼, 다음 페이지의 지도를 보려면 녹색 화살표를 클릭하세요.


METAR-TAF: